<?xml version="1.0" encoding="UTF-8" standalone="no" ?>
<gpx xmlns="http://www.topografix.com/GPX/1/1" creator="MapSource 6.11.6" version="1.1" xmlns:xsi="http://www.w3.org/2001/XMLSchema-instance" xsi:schemaLocation="http://www.topografix.com/GPX/1/1 http://www.topografix.com/GPX/1/1/gpx.xsd">

  <metadata>
    <link href="http://www.garmin.com">
      <text>Garmin International</text>
    </link>
    <time>2008-10-29T21:02:49Z</time>
    <bounds maxlat="50.625884" maxlon="6.382808" minlat="50.610188" minlon="6.336987"/>
  </metadata>

  <trk>
    <name>Woffelsbach-Weidenbach</name>
    <extensions>
      <gpxx:TrackExtension xmlns:gpxx="http://www.garmin.com/xmlschemas/GpxExtensions/v3" xmlns:xsi="http://www.w3.org/2001/XMLSchema-instance" xsi:schemaLocation="http://www.garmin.com/xmlschemas/GpxExtensions/v3 http://www.garmin.com/xmlschemas/GpxExtensions/v3/GpxExtensionsv3.xsd">
        <gpxx:DisplayColor>White</gpxx:DisplayColor>
      </gpxx:TrackExtension>
    </extensions>
    <trkseg>
      <trkpt lat="50.621046" lon="6.380028">
        <ele>304.000000</ele>
        <time>2008-01-30T11:51:45Z</time>
      </trkpt>
      <trkpt lat="50.620050" lon="6.379200">
        <ele>313.000000</ele>
        <time>2008-01-30T11:52:30Z</time>
      </trkpt>
      <trkpt lat="50.619790" lon="6.379015">
        <ele>313.000000</ele>
        <time>2008-01-30T11:52:41Z</time>
      </trkpt>
      <trkpt lat="50.619484" lon="6.378712">
        <ele>322.000000</ele>
        <time>2008-01-30T11:52:56Z</time>
      </trkpt>
      <trkpt lat="50.619315" lon="6.378615">
        <ele>322.000000</ele>
        <time>2008-01-30T11:53:03Z</time>
      </trkpt>
      <trkpt lat="50.618785" lon="6.378639">
        <ele>322.000000</ele>
        <time>2008-01-30T11:53:24Z</time>
      </trkpt>
      <trkpt lat="50.617653" lon="6.378235">
        <ele>317.000000</ele>
        <time>2008-01-30T11:54:11Z</time>
      </trkpt>
      <trkpt lat="50.616312" lon="6.377138">
        <ele>317.000000</ele>
        <time>2008-01-30T11:55:11Z</time>
      </trkpt>
      <trkpt lat="50.615799" lon="6.376256">
        <ele>328.000000</ele>
        <time>2008-01-30T11:55:42Z</time>
      </trkpt>
      <trkpt lat="50.615691" lon="6.376255">
        <ele>328.000000</ele>
        <time>2008-01-30T11:55:46Z</time>
      </trkpt>
      <trkpt lat="50.615601" lon="6.376367">
        <ele>328.000000</ele>
        <time>2008-01-30T11:55:51Z</time>
      </trkpt>
      <trkpt lat="50.615546" lon="6.376720">
        <ele>328.000000</ele>
        <time>2008-01-30T11:56:00Z</time>
      </trkpt>
      <trkpt lat="50.614803" lon="6.378409">
        <ele>342.000000</ele>
        <time>2008-01-30T11:56:52Z</time>
      </trkpt>
      <trkpt lat="50.614676" lon="6.378691">
        <ele>342.000000</ele>
        <time>2008-01-30T11:57:01Z</time>
      </trkpt>
      <trkpt lat="50.614604" lon="6.378747">
        <ele>342.000000</ele>
        <time>2008-01-30T11:57:04Z</time>
      </trkpt>
      <trkpt lat="50.614598" lon="6.378402">
        <ele>342.000000</ele>
        <time>2008-01-30T11:57:13Z</time>
      </trkpt>
      <trkpt lat="50.614572" lon="6.378264">
        <ele>344.000000</ele>
        <time>2008-01-30T11:57:16Z</time>
      </trkpt>
      <trkpt lat="50.614529" lon="6.378085">
        <ele>344.000000</ele>
        <time>2008-01-30T11:57:21Z</time>
      </trkpt>
      <trkpt lat="50.614150" lon="6.377316">
        <ele>353.000000</ele>
        <time>2008-01-30T11:57:46Z</time>
      </trkpt>
      <trkpt lat="50.614205" lon="6.377077">
        <ele>361.000000</ele>
        <time>2008-01-30T11:57:52Z</time>
      </trkpt>
      <trkpt lat="50.614284" lon="6.376960">
        <ele>361.000000</ele>
        <time>2008-01-30T11:57:57Z</time>
      </trkpt>
      <trkpt lat="50.614575" lon="6.376599">
        <ele>361.000000</ele>
        <time>2008-01-30T11:58:12Z</time>
      </trkpt>
      <trkpt lat="50.614630" lon="6.376430">
        <ele>352.000000</ele>
        <time>2008-01-30T11:58:16Z</time>
      </trkpt>
      <trkpt lat="50.614625" lon="6.376317">
        <ele>352.000000</ele>
        <time>2008-01-30T11:58:19Z</time>
      </trkpt>
      <trkpt lat="50.614593" lon="6.376125">
        <ele>356.000000</ele>
        <time>2008-01-30T11:58:24Z</time>
      </trkpt>
      <trkpt lat="50.614501" lon="6.375955">
        <ele>371.000000</ele>
        <time>2008-01-30T11:58:30Z</time>
      </trkpt>
      <trkpt lat="50.614642" lon="6.375390">
        <ele>359.000000</ele>
        <time>2008-01-30T11:58:45Z</time>
      </trkpt>
      <trkpt lat="50.614783" lon="6.374794">
        <ele>359.000000</ele>
        <time>2008-01-30T11:59:02Z</time>
      </trkpt>
      <trkpt lat="50.614835" lon="6.374361">
        <ele>357.000000</ele>
        <time>2008-01-30T11:59:13Z</time>
      </trkpt>
      <trkpt lat="50.614804" lon="6.373848">
        <ele>357.000000</ele>
        <time>2008-01-30T11:59:26Z</time>
      </trkpt>
      <trkpt lat="50.614732" lon="6.373380">
        <ele>355.000000</ele>
        <time>2008-01-30T11:59:38Z</time>
      </trkpt>
      <trkpt lat="50.614622" lon="6.373350">
        <ele>355.000000</ele>
        <time>2008-01-30T11:59:43Z</time>
      </trkpt>
      <trkpt lat="50.614562" lon="6.373214">
        <ele>388.000000</ele>
        <time>2008-01-30T11:59:47Z</time>
      </trkpt>
      <trkpt lat="50.614497" lon="6.372982">
        <ele>388.000000</ele>
        <time>2008-01-30T11:59:53Z</time>
      </trkpt>
      <trkpt lat="50.614391" lon="6.372458">
        <ele>388.000000</ele>
        <time>2008-01-30T12:00:07Z</time>
      </trkpt>
      <trkpt lat="50.614362" lon="6.372002">
        <ele>388.000000</ele>
        <time>2008-01-30T12:00:19Z</time>
      </trkpt>
      <trkpt lat="50.614357" lon="6.371624">
        <ele>388.000000</ele>
        <time>2008-01-30T12:00:28Z</time>
      </trkpt>
      <trkpt lat="50.614370" lon="6.371347">
        <ele>388.000000</ele>
        <time>2008-01-30T12:00:36Z</time>
      </trkpt>
      <trkpt lat="50.614413" lon="6.371059">
        <ele>392.000000</ele>
        <time>2008-01-30T12:00:43Z</time>
      </trkpt>
      <trkpt lat="50.614511" lon="6.370752">
        <ele>392.000000</ele>
        <time>2008-01-30T12:00:52Z</time>
      </trkpt>
      <trkpt lat="50.614705" lon="6.369875">
        <ele>364.000000</ele>
        <time>2008-01-30T12:01:15Z</time>
      </trkpt>
      <trkpt lat="50.614851" lon="6.369254">
        <ele>371.000000</ele>
        <time>2008-01-30T12:01:32Z</time>
      </trkpt>
      <trkpt lat="50.614919" lon="6.367418">
        <ele>384.000000</ele>
        <time>2008-01-30T12:02:19Z</time>
      </trkpt>
      <trkpt lat="50.614988" lon="6.367134">
        <ele>384.000000</ele>
        <time>2008-01-30T12:02:27Z</time>
      </trkpt>
      <trkpt lat="50.615032" lon="6.366532">
        <ele>390.000000</ele>
        <time>2008-01-30T12:02:42Z</time>
      </trkpt>
      <trkpt lat="50.615230" lon="6.365810">
        <ele>396.000000</ele>
        <time>2008-01-30T12:03:02Z</time>
      </trkpt>
      <trkpt lat="50.615256" lon="6.365362">
        <ele>402.000000</ele>
        <time>2008-01-30T12:03:13Z</time>
      </trkpt>
      <trkpt lat="50.615286" lon="6.365146">
        <ele>402.000000</ele>
        <time>2008-01-30T12:03:19Z</time>
      </trkpt>
      <trkpt lat="50.615339" lon="6.364776">
        <ele>402.000000</ele>
        <time>2008-01-30T12:03:29Z</time>
      </trkpt>
      <trkpt lat="50.615478" lon="6.364060">
        <ele>373.000000</ele>
        <time>2008-01-30T12:03:48Z</time>
      </trkpt>
      <trkpt lat="50.615486" lon="6.363793">
        <ele>373.000000</ele>
        <time>2008-01-30T12:03:54Z</time>
      </trkpt>
      <trkpt lat="50.615461" lon="6.363622">
        <ele>377.000000</ele>
        <time>2008-01-30T12:03:59Z</time>
      </trkpt>
      <trkpt lat="50.615151" lon="6.362220">
        <ele>405.000000</ele>
        <time>2008-01-30T12:04:37Z</time>
      </trkpt>
      <trkpt lat="50.614681" lon="6.360211">
        <ele>396.000000</ele>
        <time>2008-01-30T12:05:31Z</time>
      </trkpt>
      <trkpt lat="50.614523" lon="6.359710">
        <ele>421.000000</ele>
        <time>2008-01-30T12:05:45Z</time>
      </trkpt>
      <trkpt lat="50.614490" lon="6.359464">
        <ele>419.000000</ele>
        <time>2008-01-30T12:05:52Z</time>
      </trkpt>
      <trkpt lat="50.614440" lon="6.359297">
        <ele>419.000000</ele>
        <time>2008-01-30T12:05:56Z</time>
      </trkpt>
      <trkpt lat="50.614157" lon="6.358707">
        <ele>418.000000</ele>
        <time>2008-01-30T12:06:15Z</time>
      </trkpt>
      <trkpt lat="50.613905" lon="6.358134">
        <ele>418.000000</ele>
        <time>2008-01-30T12:06:33Z</time>
      </trkpt>
      <trkpt lat="50.613802" lon="6.357982">
        <ele>418.000000</ele>
        <time>2008-01-30T12:06:38Z</time>
      </trkpt>
      <trkpt lat="50.613506" lon="6.357036">
        <ele>441.000000</ele>
        <time>2008-01-30T12:07:05Z</time>
      </trkpt>
      <trkpt lat="50.613507" lon="6.356903">
        <ele>441.000000</ele>
        <time>2008-01-30T12:07:09Z</time>
      </trkpt>
      <trkpt lat="50.613541" lon="6.356754">
        <ele>441.000000</ele>
        <time>2008-01-30T12:07:13Z</time>
      </trkpt>
      <trkpt lat="50.613660" lon="6.356482">
        <ele>441.000000</ele>
        <time>2008-01-30T12:07:21Z</time>
      </trkpt>
      <trkpt lat="50.613913" lon="6.356086">
        <ele>417.000000</ele>
        <time>2008-01-30T12:07:35Z</time>
      </trkpt>
      <trkpt lat="50.613966" lon="6.355952">
        <ele>417.000000</ele>
        <time>2008-01-30T12:07:39Z</time>
      </trkpt>
      <trkpt lat="50.613985" lon="6.355783">
        <ele>417.000000</ele>
        <time>2008-01-30T12:07:44Z</time>
      </trkpt>
      <trkpt lat="50.613949" lon="6.355458">
        <ele>417.000000</ele>
        <time>2008-01-30T12:07:52Z</time>
      </trkpt>
      <trkpt lat="50.613884" lon="6.355004">
        <ele>419.000000</ele>
        <time>2008-01-30T12:08:04Z</time>
      </trkpt>
      <trkpt lat="50.613826" lon="6.354538">
        <ele>421.000000</ele>
        <time>2008-01-30T12:08:16Z</time>
      </trkpt>
      <trkpt lat="50.613808" lon="6.354033">
        <ele>421.000000</ele>
        <time>2008-01-30T12:08:29Z</time>
      </trkpt>
      <trkpt lat="50.613784" lon="6.353798">
        <ele>421.000000</ele>
        <time>2008-01-30T12:08:35Z</time>
      </trkpt>
      <trkpt lat="50.613830" lon="6.353309">
        <ele>422.000000</ele>
        <time>2008-01-30T12:08:47Z</time>
      </trkpt>
      <trkpt lat="50.613894" lon="6.353059">
        <ele>422.000000</ele>
        <time>2008-01-30T12:08:54Z</time>
      </trkpt>
      <trkpt lat="50.614005" lon="6.352847">
        <ele>417.000000</ele>
        <time>2008-01-30T12:09:01Z</time>
      </trkpt>
      <trkpt lat="50.613994" lon="6.352733">
        <ele>417.000000</ele>
        <time>2008-01-30T12:09:04Z</time>
      </trkpt>
      <trkpt lat="50.613856" lon="6.352383">
        <ele>417.000000</ele>
        <time>2008-01-30T12:09:15Z</time>
      </trkpt>
      <trkpt lat="50.613663" lon="6.351980">
        <ele>436.000000</ele>
        <time>2008-01-30T12:09:27Z</time>
      </trkpt>
      <trkpt lat="50.613560" lon="6.351776">
        <ele>436.000000</ele>
        <time>2008-01-30T12:09:34Z</time>
      </trkpt>
      <trkpt lat="50.613328" lon="6.351383">
        <ele>436.000000</ele>
        <time>2008-01-30T12:09:48Z</time>
      </trkpt>
      <trkpt lat="50.613198" lon="6.351214">
        <ele>428.000000</ele>
        <time>2008-01-30T12:09:54Z</time>
      </trkpt>
      <trkpt lat="50.612974" lon="6.351088">
        <ele>428.000000</ele>
        <time>2008-01-30T12:10:04Z</time>
      </trkpt>
      <trkpt lat="50.612568" lon="6.350832">
        <ele>450.000000</ele>
        <time>2008-01-30T12:10:21Z</time>
      </trkpt>
      <trkpt lat="50.612582" lon="6.350620">
        <ele>450.000000</ele>
        <time>2008-01-30T12:10:27Z</time>
      </trkpt>
      <trkpt lat="50.612665" lon="6.350349">
        <ele>449.000000</ele>
        <time>2008-01-30T12:10:35Z</time>
      </trkpt>
      <trkpt lat="50.612687" lon="6.350135">
        <ele>449.000000</ele>
        <time>2008-01-30T12:10:40Z</time>
      </trkpt>
      <trkpt lat="50.612592" lon="6.349542">
        <ele>452.000000</ele>
        <time>2008-01-30T12:10:56Z</time>
      </trkpt>
      <trkpt lat="50.612557" lon="6.349104">
        <ele>452.000000</ele>
        <time>2008-01-30T12:11:07Z</time>
      </trkpt>
      <trkpt lat="50.612433" lon="6.348679">
        <ele>455.000000</ele>
        <time>2008-01-30T12:11:19Z</time>
      </trkpt>
      <trkpt lat="50.612344" lon="6.348155">
        <ele>455.000000</ele>
        <time>2008-01-30T12:11:32Z</time>
      </trkpt>
      <trkpt lat="50.612291" lon="6.347959">
        <ele>455.000000</ele>
        <time>2008-01-30T12:11:38Z</time>
      </trkpt>
      <trkpt lat="50.612220" lon="6.347844">
        <ele>458.000000</ele>
        <time>2008-01-30T12:11:42Z</time>
      </trkpt>
      <trkpt lat="50.612059" lon="6.347560">
        <ele>473.000000</ele>
        <time>2008-01-30T12:11:52Z</time>
      </trkpt>
      <trkpt lat="50.612033" lon="6.347122">
        <ele>473.000000</ele>
        <time>2008-01-30T12:12:03Z</time>
      </trkpt>
      <trkpt lat="50.612116" lon="6.346897">
        <ele>460.000000</ele>
        <time>2008-01-30T12:12:09Z</time>
      </trkpt>
      <trkpt lat="50.612419" lon="6.346311">
        <ele>460.000000</ele>
        <time>2008-01-30T12:12:29Z</time>
      </trkpt>
      <trkpt lat="50.612567" lon="6.345981">
        <ele>461.000000</ele>
        <time>2008-01-30T12:12:39Z</time>
      </trkpt>
      <trkpt lat="50.612601" lon="6.345877">
        <ele>461.000000</ele>
        <time>2008-01-30T12:12:42Z</time>
      </trkpt>
      <trkpt lat="50.612587" lon="6.345732">
        <ele>461.000000</ele>
        <time>2008-01-30T12:12:46Z</time>
      </trkpt>
      <trkpt lat="50.612318" lon="6.345005">
        <ele>462.000000</ele>
        <time>2008-01-30T12:13:07Z</time>
      </trkpt>
      <trkpt lat="50.611497" lon="6.343086">
        <ele>468.000000</ele>
        <time>2008-01-30T12:14:06Z</time>
      </trkpt>
      <trkpt lat="50.611131" lon="6.342586">
        <ele>485.000000</ele>
        <time>2008-01-30T12:14:25Z</time>
      </trkpt>
      <trkpt lat="50.610789" lon="6.342069">
        <ele>485.000000</ele>
        <time>2008-01-30T12:14:44Z</time>
      </trkpt>
      <trkpt lat="50.610188" lon="6.341655">
        <ele>497.000000</ele>
        <time>2008-01-30T12:15:10Z</time>
      </trkpt>
      <trkpt lat="50.610559" lon="6.340994">
        <ele>494.000000</ele>
        <time>2008-01-30T12:15:33Z</time>
      </trkpt>
      <trkpt lat="50.611073" lon="6.340263">
        <ele>503.000000</ele>
        <time>2008-01-30T12:16:00Z</time>
      </trkpt>
      <trkpt lat="50.611087" lon="6.340112">
        <ele>503.000000</ele>
        <time>2008-01-30T12:16:04Z</time>
      </trkpt>
      <trkpt lat="50.611041" lon="6.339104">
        <ele>508.000000</ele>
        <time>2008-01-30T12:16:30Z</time>
      </trkpt>
      <trkpt lat="50.610970" lon="6.338652">
        <ele>512.000000</ele>
        <time>2008-01-30T12:16:42Z</time>
      </trkpt>
      <trkpt lat="50.611044" lon="6.337847">
        <ele>515.000000</ele>
        <time>2008-01-30T12:17:03Z</time>
      </trkpt>
      <trkpt lat="50.611136" lon="6.337296">
        <ele>515.000000</ele>
        <time>2008-01-30T12:17:17Z</time>
      </trkpt>
      <trkpt lat="50.611118" lon="6.337100">
        <ele>515.000000</ele>
        <time>2008-01-30T12:17:22Z</time>
      </trkpt>
      <trkpt lat="50.611299" lon="6.336987">
        <ele>509.000000</ele>
        <time>2008-01-30T12:17:30Z</time>
      </trkpt>
      <trkpt lat="50.611613" lon="6.337046">
        <ele>509.000000</ele>
        <time>2008-01-30T12:17:42Z</time>
      </trkpt>
      <trkpt lat="50.611828" lon="6.337327">
        <ele>503.000000</ele>
        <time>2008-01-30T12:17:54Z</time>
      </trkpt>
      <trkpt lat="50.611915" lon="6.337400">
        <ele>503.000000</ele>
        <time>2008-01-30T12:17:58Z</time>
      </trkpt>
      <trkpt lat="50.611955" lon="6.337495">
        <ele>503.000000</ele>
        <time>2008-01-30T12:18:01Z</time>
      </trkpt>
      <trkpt lat="50.612101" lon="6.337971">
        <ele>492.000000</ele>
        <time>2008-01-30T12:18:14Z</time>
      </trkpt>
      <trkpt lat="50.612270" lon="6.338458">
        <ele>492.000000</ele>
        <time>2008-01-30T12:18:28Z</time>
      </trkpt>
      <trkpt lat="50.612461" lon="6.338973">
        <ele>488.000000</ele>
        <time>2008-01-30T12:18:43Z</time>
      </trkpt>
      <trkpt lat="50.612586" lon="6.339313">
        <ele>488.000000</ele>
        <time>2008-01-30T12:18:53Z</time>
      </trkpt>
      <trkpt lat="50.613128" lon="6.341450">
        <ele>479.000000</ele>
        <time>2008-01-30T12:19:52Z</time>
      </trkpt>
      <trkpt lat="50.613369" lon="6.342342">
        <ele>473.000000</ele>
        <time>2008-01-30T12:20:16Z</time>
      </trkpt>
      <trkpt lat="50.614010" lon="6.344120">
        <ele>469.000000</ele>
        <time>2008-01-30T12:21:08Z</time>
      </trkpt>
      <trkpt lat="50.614281" lon="6.344825">
        <ele>465.000000</ele>
        <time>2008-01-30T12:21:29Z</time>
      </trkpt>
      <trkpt lat="50.614456" lon="6.345614">
        <ele>457.000000</ele>
        <time>2008-01-30T12:21:50Z</time>
      </trkpt>
      <trkpt lat="50.614705" lon="6.346365">
        <ele>462.000000</ele>
        <time>2008-01-30T12:22:12Z</time>
      </trkpt>
      <trkpt lat="50.614912" lon="6.347146">
        <ele>458.000000</ele>
        <time>2008-01-30T12:22:33Z</time>
      </trkpt>
      <trkpt lat="50.615037" lon="6.347423">
        <ele>458.000000</ele>
        <time>2008-01-30T12:22:42Z</time>
      </trkpt>
      <trkpt lat="50.615204" lon="6.347789">
        <ele>458.000000</ele>
        <time>2008-01-30T12:22:53Z</time>
      </trkpt>
      <trkpt lat="50.615756" lon="6.349206">
        <ele>451.000000</ele>
        <time>2008-01-30T12:23:36Z</time>
      </trkpt>
      <trkpt lat="50.615835" lon="6.349292">
        <ele>451.000000</ele>
        <time>2008-01-30T12:23:40Z</time>
      </trkpt>
      <trkpt lat="50.615901" lon="6.349312">
        <ele>451.000000</ele>
        <time>2008-01-30T12:23:42Z</time>
      </trkpt>
      <trkpt lat="50.615954" lon="6.349279">
        <ele>451.000000</ele>
        <time>2008-01-30T12:23:45Z</time>
      </trkpt>
      <trkpt lat="50.616009" lon="6.349186">
        <ele>451.000000</ele>
        <time>2008-01-30T12:23:48Z</time>
      </trkpt>
      <trkpt lat="50.616174" lon="6.348777">
        <ele>451.000000</ele>
        <time>2008-01-30T12:24:00Z</time>
      </trkpt>
      <trkpt lat="50.616327" lon="6.348185">
        <ele>445.000000</ele>
        <time>2008-01-30T12:24:16Z</time>
      </trkpt>
      <trkpt lat="50.616511" lon="6.347673">
        <ele>449.000000</ele>
        <time>2008-01-30T12:24:31Z</time>
      </trkpt>
      <trkpt lat="50.616698" lon="6.347241">
        <ele>449.000000</ele>
        <time>2008-01-30T12:24:45Z</time>
      </trkpt>
      <trkpt lat="50.616770" lon="6.347185">
        <ele>449.000000</ele>
        <time>2008-01-30T12:24:48Z</time>
      </trkpt>
      <trkpt lat="50.616732" lon="6.347903">
        <ele>449.000000</ele>
        <time>2008-01-30T12:25:06Z</time>
      </trkpt>
      <trkpt lat="50.616784" lon="6.348542">
        <ele>445.000000</ele>
        <time>2008-01-30T12:25:22Z</time>
      </trkpt>
      <trkpt lat="50.616893" lon="6.349214">
        <ele>437.000000</ele>
        <time>2008-01-30T12:25:40Z</time>
      </trkpt>
      <trkpt lat="50.617038" lon="6.349969">
        <ele>429.000000</ele>
        <time>2008-01-30T12:26:00Z</time>
      </trkpt>
      <trkpt lat="50.617102" lon="6.350352">
        <ele>419.000000</ele>
        <time>2008-01-30T12:26:10Z</time>
      </trkpt>
      <trkpt lat="50.617114" lon="6.350644">
        <ele>422.000000</ele>
        <time>2008-01-30T12:26:18Z</time>
      </trkpt>
      <trkpt lat="50.617331" lon="6.350680">
        <ele>422.000000</ele>
        <time>2008-01-30T12:26:26Z</time>
      </trkpt>
      <trkpt lat="50.617343" lon="6.350863">
        <ele>422.000000</ele>
        <time>2008-01-30T12:26:31Z</time>
      </trkpt>
      <trkpt lat="50.617330" lon="6.350958">
        <ele>422.000000</ele>
        <time>2008-01-30T12:26:33Z</time>
      </trkpt>
      <trkpt lat="50.617153" lon="6.351413">
        <ele>426.000000</ele>
        <time>2008-01-30T12:26:47Z</time>
      </trkpt>
      <trkpt lat="50.617066" lon="6.351573">
        <ele>415.000000</ele>
        <time>2008-01-30T12:26:52Z</time>
      </trkpt>
      <trkpt lat="50.616918" lon="6.351750">
        <ele>415.000000</ele>
        <time>2008-01-30T12:27:00Z</time>
      </trkpt>
      <trkpt lat="50.616792" lon="6.351805">
        <ele>415.000000</ele>
        <time>2008-01-30T12:27:05Z</time>
      </trkpt>
      <trkpt lat="50.616684" lon="6.351861">
        <ele>415.000000</ele>
        <time>2008-01-30T12:27:10Z</time>
      </trkpt>
      <trkpt lat="50.616531" lon="6.351917">
        <ele>415.000000</ele>
        <time>2008-01-30T12:27:16Z</time>
      </trkpt>
      <trkpt lat="50.616338" lon="6.351911">
        <ele>415.000000</ele>
        <time>2008-01-30T12:27:24Z</time>
      </trkpt>
      <trkpt lat="50.616099" lon="6.352041">
        <ele>408.000000</ele>
        <time>2008-01-30T12:27:34Z</time>
      </trkpt>
      <trkpt lat="50.615838" lon="6.352349">
        <ele>412.000000</ele>
        <time>2008-01-30T12:27:47Z</time>
      </trkpt>
      <trkpt lat="50.615711" lon="6.352518">
        <ele>412.000000</ele>
        <time>2008-01-30T12:27:53Z</time>
      </trkpt>
      <trkpt lat="50.615616" lon="6.352714">
        <ele>412.000000</ele>
        <time>2008-01-30T12:28:00Z</time>
      </trkpt>
      <trkpt lat="50.615567" lon="6.352884">
        <ele>412.000000</ele>
        <time>2008-01-30T12:28:04Z</time>
      </trkpt>
      <trkpt lat="50.615555" lon="6.353069">
        <ele>416.000000</ele>
        <time>2008-01-30T12:28:09Z</time>
      </trkpt>
      <trkpt lat="50.615565" lon="6.353266">
        <ele>416.000000</ele>
        <time>2008-01-30T12:28:14Z</time>
      </trkpt>
      <trkpt lat="50.615600" lon="6.353878">
        <ele>414.000000</ele>
        <time>2008-01-30T12:28:30Z</time>
      </trkpt>
      <trkpt lat="50.615570" lon="6.354722">
        <ele>411.000000</ele>
        <time>2008-01-30T12:28:51Z</time>
      </trkpt>
      <trkpt lat="50.615565" lon="6.354867">
        <ele>411.000000</ele>
        <time>2008-01-30T12:28:55Z</time>
      </trkpt>
      <trkpt lat="50.615552" lon="6.354989">
        <ele>411.000000</ele>
        <time>2008-01-30T12:28:58Z</time>
      </trkpt>
      <trkpt lat="50.615502" lon="6.355137">
        <ele>411.000000</ele>
        <time>2008-01-30T12:29:02Z</time>
      </trkpt>
      <trkpt lat="50.615442" lon="6.355441">
        <ele>410.000000</ele>
        <time>2008-01-30T12:29:10Z</time>
      </trkpt>
      <trkpt lat="50.615412" lon="6.355585">
        <ele>392.000000</ele>
        <time>2008-01-30T12:29:14Z</time>
      </trkpt>
      <trkpt lat="50.615394" lon="6.355822">
        <ele>392.000000</ele>
        <time>2008-01-30T12:29:20Z</time>
      </trkpt>
      <trkpt lat="50.615404" lon="6.356189">
        <ele>392.000000</ele>
        <time>2008-01-30T12:29:30Z</time>
      </trkpt>
      <trkpt lat="50.615483" lon="6.356713">
        <ele>409.000000</ele>
        <time>2008-01-30T12:29:43Z</time>
      </trkpt>
      <trkpt lat="50.615570" lon="6.357603">
        <ele>401.000000</ele>
        <time>2008-01-30T12:30:06Z</time>
      </trkpt>
      <trkpt lat="50.615602" lon="6.358002">
        <ele>392.000000</ele>
        <time>2008-01-30T12:30:16Z</time>
      </trkpt>
      <trkpt lat="50.615710" lon="6.358721">
        <ele>392.000000</ele>
        <time>2008-01-30T12:30:35Z</time>
      </trkpt>
      <trkpt lat="50.615869" lon="6.359782">
        <ele>373.000000</ele>
        <time>2008-01-30T12:31:03Z</time>
      </trkpt>
      <trkpt lat="50.615904" lon="6.359936">
        <ele>373.000000</ele>
        <time>2008-01-30T12:31:07Z</time>
      </trkpt>
      <trkpt lat="50.616056" lon="6.360334">
        <ele>373.000000</ele>
        <time>2008-01-30T12:31:19Z</time>
      </trkpt>
      <trkpt lat="50.616143" lon="6.360480">
        <ele>373.000000</ele>
        <time>2008-01-30T12:31:24Z</time>
      </trkpt>
      <trkpt lat="50.616225" lon="6.360687">
        <ele>373.000000</ele>
        <time>2008-01-30T12:31:30Z</time>
      </trkpt>
      <trkpt lat="50.616288" lon="6.360986">
        <ele>389.000000</ele>
        <time>2008-01-30T12:31:38Z</time>
      </trkpt>
      <trkpt lat="50.616335" lon="6.361129">
        <ele>389.000000</ele>
        <time>2008-01-30T12:31:42Z</time>
      </trkpt>
      <trkpt lat="50.616476" lon="6.361394">
        <ele>377.000000</ele>
        <time>2008-01-30T12:31:51Z</time>
      </trkpt>
      <trkpt lat="50.616573" lon="6.361652">
        <ele>377.000000</ele>
        <time>2008-01-30T12:31:59Z</time>
      </trkpt>
      <trkpt lat="50.616725" lon="6.362176">
        <ele>369.000000</ele>
        <time>2008-01-30T12:32:13Z</time>
      </trkpt>
      <trkpt lat="50.616747" lon="6.362305">
        <ele>369.000000</ele>
        <time>2008-01-30T12:32:17Z</time>
      </trkpt>
      <trkpt lat="50.616776" lon="6.362925">
        <ele>360.000000</ele>
        <time>2008-01-30T12:32:32Z</time>
      </trkpt>
      <trkpt lat="50.616721" lon="6.363349">
        <ele>360.000000</ele>
        <time>2008-01-30T12:32:43Z</time>
      </trkpt>
      <trkpt lat="50.616708" lon="6.363488">
        <ele>360.000000</ele>
        <time>2008-01-30T12:32:47Z</time>
      </trkpt>
      <trkpt lat="50.616771" lon="6.364437">
        <ele>356.000000</ele>
        <time>2008-01-30T12:33:11Z</time>
      </trkpt>
      <trkpt lat="50.616735" lon="6.364635">
        <ele>352.000000</ele>
        <time>2008-01-30T12:33:16Z</time>
      </trkpt>
      <trkpt lat="50.616644" lon="6.364902">
        <ele>352.000000</ele>
        <time>2008-01-30T12:33:24Z</time>
      </trkpt>
      <trkpt lat="50.616606" lon="6.365566">
        <ele>348.000000</ele>
        <time>2008-01-30T12:33:41Z</time>
      </trkpt>
      <trkpt lat="50.616728" lon="6.366712">
        <ele>344.000000</ele>
        <time>2008-01-30T12:34:11Z</time>
      </trkpt>
      <trkpt lat="50.616780" lon="6.367376">
        <ele>338.000000</ele>
        <time>2008-01-30T12:34:28Z</time>
      </trkpt>
      <trkpt lat="50.616851" lon="6.367563">
        <ele>338.000000</ele>
        <time>2008-01-30T12:34:33Z</time>
      </trkpt>
      <trkpt lat="50.617010" lon="6.367766">
        <ele>338.000000</ele>
        <time>2008-01-30T12:34:41Z</time>
      </trkpt>
      <trkpt lat="50.617120" lon="6.367972">
        <ele>363.000000</ele>
        <time>2008-01-30T12:34:48Z</time>
      </trkpt>
      <trkpt lat="50.617412" lon="6.369387">
        <ele>363.000000</ele>
        <time>2008-01-30T12:35:26Z</time>
      </trkpt>
      <trkpt lat="50.617511" lon="6.370506">
        <ele>354.000000</ele>
        <time>2008-01-30T12:35:55Z</time>
      </trkpt>
      <trkpt lat="50.617534" lon="6.370618">
        <ele>354.000000</ele>
        <time>2008-01-30T12:35:58Z</time>
      </trkpt>
      <trkpt lat="50.618098" lon="6.371230">
        <ele>380.000000</ele>
        <time>2008-01-30T12:36:25Z</time>
      </trkpt>
      <trkpt lat="50.619158" lon="6.371637">
        <ele>370.000000</ele>
        <time>2008-01-30T12:37:09Z</time>
      </trkpt>
      <trkpt lat="50.619383" lon="6.371661">
        <ele>370.000000</ele>
        <time>2008-01-30T12:37:18Z</time>
      </trkpt>
      <trkpt lat="50.619922" lon="6.371724">
        <ele>374.000000</ele>
        <time>2008-01-30T12:37:39Z</time>
      </trkpt>
      <trkpt lat="50.620492" lon="6.371799">
        <ele>378.000000</ele>
        <time>2008-01-30T12:38:02Z</time>
      </trkpt>
      <trkpt lat="50.620748" lon="6.371943">
        <ele>378.000000</ele>
        <time>2008-01-30T12:38:13Z</time>
      </trkpt>
      <trkpt lat="50.620962" lon="6.371961">
        <ele>378.000000</ele>
        <time>2008-01-30T12:38:22Z</time>
      </trkpt>
      <trkpt lat="50.621108" lon="6.371971">
        <ele>378.000000</ele>
        <time>2008-01-30T12:38:28Z</time>
      </trkpt>
      <trkpt lat="50.621368" lon="6.371878">
        <ele>369.000000</ele>
        <time>2008-01-30T12:38:38Z</time>
      </trkpt>
      <trkpt lat="50.621636" lon="6.371772">
        <ele>369.000000</ele>
        <time>2008-01-30T12:38:49Z</time>
      </trkpt>
      <trkpt lat="50.621801" lon="6.371781">
        <ele>369.000000</ele>
        <time>2008-01-30T12:38:56Z</time>
      </trkpt>
      <trkpt lat="50.621899" lon="6.371825">
        <ele>369.000000</ele>
        <time>2008-01-30T12:39:00Z</time>
      </trkpt>
      <trkpt lat="50.622482" lon="6.372324">
        <ele>361.000000</ele>
        <time>2008-01-30T12:39:27Z</time>
      </trkpt>
      <trkpt lat="50.622661" lon="6.372495">
        <ele>361.000000</ele>
        <time>2008-01-30T12:39:35Z</time>
      </trkpt>
      <trkpt lat="50.622956" lon="6.372935">
        <ele>359.000000</ele>
        <time>2008-01-30T12:39:51Z</time>
      </trkpt>
      <trkpt lat="50.623332" lon="6.373617">
        <ele>359.000000</ele>
        <time>2008-01-30T12:40:14Z</time>
      </trkpt>
      <trkpt lat="50.623500" lon="6.374311">
        <ele>351.000000</ele>
        <time>2008-01-30T12:40:33Z</time>
      </trkpt>
      <trkpt lat="50.623760" lon="6.375058">
        <ele>373.000000</ele>
        <time>2008-01-30T12:40:55Z</time>
      </trkpt>
      <trkpt lat="50.624087" lon="6.376069">
        <ele>362.000000</ele>
        <time>2008-01-30T12:41:23Z</time>
      </trkpt>
      <trkpt lat="50.624275" lon="6.376648">
        <ele>350.000000</ele>
        <time>2008-01-30T12:41:40Z</time>
      </trkpt>
      <trkpt lat="50.624580" lon="6.377441">
        <ele>340.000000</ele>
        <time>2008-01-30T12:42:04Z</time>
      </trkpt>
      <trkpt lat="50.624727" lon="6.377960">
        <ele>360.000000</ele>
        <time>2008-01-30T12:42:18Z</time>
      </trkpt>
      <trkpt lat="50.624799" lon="6.378575">
        <ele>360.000000</ele>
        <time>2008-01-30T12:42:34Z</time>
      </trkpt>
      <trkpt lat="50.624778" lon="6.379408">
        <ele>354.000000</ele>
        <time>2008-01-30T12:42:55Z</time>
      </trkpt>
      <trkpt lat="50.624864" lon="6.380525">
        <ele>334.000000</ele>
        <time>2008-01-30T12:43:24Z</time>
      </trkpt>
      <trkpt lat="50.624980" lon="6.380817">
        <ele>334.000000</ele>
        <time>2008-01-30T12:43:32Z</time>
      </trkpt>
      <trkpt lat="50.625193" lon="6.381550">
        <ele>320.000000</ele>
        <time>2008-01-30T12:43:53Z</time>
      </trkpt>
      <trkpt lat="50.625408" lon="6.382169">
        <ele>307.000000</ele>
        <time>2008-01-30T12:44:11Z</time>
      </trkpt>
      <trkpt lat="50.625494" lon="6.382424">
        <ele>318.000000</ele>
        <time>2008-01-30T12:44:18Z</time>
      </trkpt>
      <trkpt lat="50.625568" lon="6.382538">
        <ele>318.000000</ele>
        <time>2008-01-30T12:44:22Z</time>
      </trkpt>
      <trkpt lat="50.625632" lon="6.382562">
        <ele>318.000000</ele>
        <time>2008-01-30T12:44:25Z</time>
      </trkpt>
      <trkpt lat="50.625694" lon="6.382510">
        <ele>318.000000</ele>
        <time>2008-01-30T12:44:28Z</time>
      </trkpt>
      <trkpt lat="50.625884" lon="6.381936">
        <ele>328.000000</ele>
        <time>2008-01-30T12:44:44Z</time>
      </trkpt>
      <trkpt lat="50.625812" lon="6.382546">
        <ele>318.000000</ele>
        <time>2008-01-30T12:45:00Z</time>
      </trkpt>
      <trkpt lat="50.625743" lon="6.382725">
        <ele>318.000000</ele>
        <time>2008-01-30T12:45:05Z</time>
      </trkpt>
      <trkpt lat="50.625672" lon="6.382808">
        <ele>318.000000</ele>
        <time>2008-01-30T12:45:09Z</time>
      </trkpt>
      <trkpt lat="50.625581" lon="6.382716">
        <ele>318.000000</ele>
        <time>2008-01-30T12:45:13Z</time>
      </trkpt>
      <trkpt lat="50.625378" lon="6.382400">
        <ele>307.000000</ele>
        <time>2008-01-30T12:45:24Z</time>
      </trkpt>
      <trkpt lat="50.624993" lon="6.381737">
        <ele>320.000000</ele>
        <time>2008-01-30T12:45:47Z</time>
      </trkpt>
      <trkpt lat="50.624448" lon="6.380810">
        <ele>304.000000</ele>
        <time>2008-01-30T12:46:19Z</time>
      </trkpt>
      <trkpt lat="50.624183" lon="6.380504">
        <ele>304.000000</ele>
        <time>2008-01-30T12:46:33Z</time>
      </trkpt>
      <trkpt lat="50.623925" lon="6.379858">
        <ele>311.000000</ele>
        <time>2008-01-30T12:46:52Z</time>
      </trkpt>
      <trkpt lat="50.623733" lon="6.379027">
        <ele>292.000000</ele>
        <time>2008-01-30T12:47:14Z</time>
      </trkpt>
      <trkpt lat="50.623553" lon="6.378891">
        <ele>292.000000</ele>
        <time>2008-01-30T12:47:22Z</time>
      </trkpt>
      <trkpt lat="50.623566" lon="6.378618">
        <ele>296.000000</ele>
        <time>2008-01-30T12:47:29Z</time>
      </trkpt>
      <trkpt lat="50.623536" lon="6.378462">
        <ele>296.000000</ele>
        <time>2008-01-30T12:47:33Z</time>
      </trkpt>
      <trkpt lat="50.623164" lon="6.377689">
        <ele>307.000000</ele>
        <time>2008-01-30T12:47:58Z</time>
      </trkpt>
      <trkpt lat="50.622759" lon="6.376846">
        <ele>297.000000</ele>
        <time>2008-01-30T12:48:25Z</time>
      </trkpt>
      <trkpt lat="50.622081" lon="6.375472">
        <ele>295.000000</ele>
        <time>2008-01-30T12:49:09Z</time>
      </trkpt>
      <trkpt lat="50.621884" lon="6.375253">
        <ele>303.000000</ele>
        <time>2008-01-30T12:49:19Z</time>
      </trkpt>
      <trkpt lat="50.621617" lon="6.375050">
        <ele>303.000000</ele>
        <time>2008-01-30T12:49:31Z</time>
      </trkpt>
      <trkpt lat="50.621380" lon="6.374960">
        <ele>303.000000</ele>
        <time>2008-01-30T12:49:40Z</time>
      </trkpt>
      <trkpt lat="50.621187" lon="6.375110">
        <ele>302.000000</ele>
        <time>2008-01-30T12:49:49Z</time>
      </trkpt>
      <trkpt lat="50.620929" lon="6.374803">
        <ele>302.000000</ele>
        <time>2008-01-30T12:50:02Z</time>
      </trkpt>
      <trkpt lat="50.620782" lon="6.374781">
        <ele>302.000000</ele>
        <time>2008-01-30T12:50:08Z</time>
      </trkpt>
      <trkpt lat="50.620514" lon="6.374866">
        <ele>302.000000</ele>
        <time>2008-01-30T12:50:19Z</time>
      </trkpt>
      <trkpt lat="50.619783" lon="6.375061">
        <ele>302.000000</ele>
        <time>2008-01-30T12:50:49Z</time>
      </trkpt>
      <trkpt lat="50.619641" lon="6.375281">
        <ele>302.000000</ele>
        <time>2008-01-30T12:50:56Z</time>
      </trkpt>
      <trkpt lat="50.619527" lon="6.375317">
        <ele>299.000000</ele>
        <time>2008-01-30T12:51:01Z</time>
      </trkpt>
      <trkpt lat="50.619142" lon="6.374854">
        <ele>299.000000</ele>
        <time>2008-01-30T12:51:21Z</time>
      </trkpt>
      <trkpt lat="50.618909" lon="6.374595">
        <ele>299.000000</ele>
        <time>2008-01-30T12:51:32Z</time>
      </trkpt>
      <trkpt lat="50.618809" lon="6.374576">
        <ele>311.000000</ele>
        <time>2008-01-30T12:51:36Z</time>
      </trkpt>
      <trkpt lat="50.619036" lon="6.374927">
        <ele>299.000000</ele>
        <time>2008-01-30T12:51:49Z</time>
      </trkpt>
      <trkpt lat="50.618953" lon="6.375319">
        <ele>299.000000</ele>
        <time>2008-01-30T12:51:59Z</time>
      </trkpt>
      <trkpt lat="50.618967" lon="6.375633">
        <ele>295.000000</ele>
        <time>2008-01-30T12:52:07Z</time>
      </trkpt>
      <trkpt lat="50.618892" lon="6.375722">
        <ele>295.000000</ele>
        <time>2008-01-30T12:52:11Z</time>
      </trkpt>
      <trkpt lat="50.618712" lon="6.375575">
        <ele>294.000000</ele>
        <time>2008-01-30T12:52:19Z</time>
      </trkpt>
      <trkpt lat="50.618562" lon="6.375432">
        <ele>294.000000</ele>
        <time>2008-01-30T12:52:26Z</time>
      </trkpt>
      <trkpt lat="50.618455" lon="6.375286">
        <ele>292.000000</ele>
        <time>2008-01-30T12:52:32Z</time>
      </trkpt>
      <trkpt lat="50.618334" lon="6.375402">
        <ele>292.000000</ele>
        <time>2008-01-30T12:52:37Z</time>
      </trkpt>
      <trkpt lat="50.618265" lon="6.375739">
        <ele>294.000000</ele>
        <time>2008-01-30T12:52:46Z</time>
      </trkpt>
      <trkpt lat="50.618396" lon="6.376295">
        <ele>296.000000</ele>
        <time>2008-01-30T12:53:02Z</time>
      </trkpt>
      <trkpt lat="50.618636" lon="6.376675">
        <ele>296.000000</ele>
        <time>2008-01-30T12:53:15Z</time>
      </trkpt>
      <trkpt lat="50.618886" lon="6.376995">
        <ele>290.000000</ele>
        <time>2008-01-30T12:53:28Z</time>
      </trkpt>
      <trkpt lat="50.618657" lon="6.377431">
        <ele>308.000000</ele>
        <time>2008-01-30T12:53:42Z</time>
      </trkpt>
      <trkpt lat="50.619233" lon="6.377666">
        <ele>306.000000</ele>
        <time>2008-01-30T12:54:06Z</time>
      </trkpt>
      <trkpt lat="50.619733" lon="6.377802">
        <ele>302.000000</ele>
        <time>2008-01-30T12:54:27Z</time>
      </trkpt>
      <trkpt lat="50.620216" lon="6.378015">
        <ele>315.000000</ele>
        <time>2008-01-30T12:54:47Z</time>
      </trkpt>
      <trkpt lat="50.620691" lon="6.378570">
        <ele>302.000000</ele>
        <time>2008-01-30T12:55:10Z</time>
      </trkpt>
      <trkpt lat="50.621049" lon="6.378997">
        <ele>303.000000</ele>
        <time>2008-01-30T12:55:28Z</time>
      </trkpt>
      <trkpt lat="50.621213" lon="6.379209">
        <ele>303.000000</ele>
        <time>2008-01-30T12:55:37Z</time>
      </trkpt>
      <trkpt lat="50.621380" lon="6.379353">
        <ele>293.000000</ele>
        <time>2008-01-30T12:55:44Z</time>
      </trkpt>
      <trkpt lat="50.621578" lon="6.379552">
        <ele>293.000000</ele>
        <time>2008-01-30T12:55:54Z</time>
      </trkpt>
      <trkpt lat="50.621598" lon="6.379666">
        <ele>296.000000</ele>
        <time>2008-01-30T12:55:57Z</time>
      </trkpt>
      <trkpt lat="50.621595" lon="6.379778">
        <ele>296.000000</ele>
        <time>2008-01-30T12:56:00Z</time>
      </trkpt>
      <trkpt lat="50.621544" lon="6.379863">
        <ele>296.000000</ele>
        <time>2008-01-30T12:56:03Z</time>
      </trkpt>
      <trkpt lat="50.621046" lon="6.380028">
        <ele>304.000000</ele>
        <time>2008-01-30T12:56:23Z</time>
      </trkpt>
    </trkseg>
  </trk>

</gpx>
